TAF and METAR

Decoding for American and Canadian METARs and TAFs is not fully implemented.

Could not understand the following METAR

KLBE 192050Z 00000KT 10/SM SKC 19/04 A2992

TAF for Arnold Palmer Regional Airport

KLBE 191726Z 1918/2018 VRB04KT P6SM BKN250 FM200800 VRB04KT P6SM BKN100
Report created 19. okt 19:26

between 19. okt 20:00 - 20. okt 20:00

wind 4 knots from various directions
Arnold Palmer Regional Airport in United States of America at 361m

Latest 5 airports